sensor_id;sensor_type;location;lat;lon;timestamp;pressure;altitude;pressure_sealevel;temperature;humidity
40872;BME280;26591;43.264;26.940;2023-11-25T00:00:59;97046.00;;;11.07;79.54
40872;BME280;26591;43.264;26.940;2023-11-25T00:03:25;97049.25;;;11.09;79.21
40872;BME280;26591;43.264;26.940;2023-11-25T00:05:51;97030.41;;;10.99;79.30
40872;BME280;26591;43.264;26.940;2023-11-25T00:08:17;97034.94;;;10.92;79.15
40872;BME280;26591;43.264;26.940;2023-11-25T00:10:42;97032.47;;;10.97;79.25
40872;BME280;26591;43.264;26.940;2023-11-25T00:13:08;97013.78;;;10.92;79.51
40872;BME280;26591;43.264;26.940;2023-11-25T00:15:34;97016.97;;;10.75;79.71
40872;BME280;26591;43.264;26.940;2023-11-25T00:18:02;97010.88;;;10.75;79.83
40872;BME280;26591;43.264;26.940;2023-11-25T00:20:31;97015.81;;;10.71;79.80
40872;BME280;26591;43.264;26.940;2023-11-25T00:22:57;97018.66;;;10.69;79.83
40872;BME280;26591;43.264;26.940;2023-11-25T00:25:22;97020.75;;;10.61;80.17
40872;BME280;26591;43.264;26.940;2023-11-25T00:27:49;97000.31;;;10.49;80.23
40872;BME280;26591;43.264;26.940;2023-11-25T00:30:15;96993.25;;;10.43;80.65
40872;BME280;26591;43.264;26.940;2023-11-25T00:33:17;96997.56;;;10.31;80.83
40872;BME280;26591;43.264;26.940;2023-11-25T00:35:43;97000.66;;;10.28;81.35
40872;BME280;26591;43.264;26.940;2023-11-25T00:38:09;97004.88;;;10.35;81.29
40872;BME280;26591;43.264;26.940;2023-11-25T00:40:35;96992.91;;;10.58;80.54
40872;BME280;26591;43.264;26.940;2023-11-25T00:43:01;96997.22;;;10.52;80.24
40872;BME280;26591;43.264;26.940;2023-11-25T00:45:26;96982.63;;;10.50;80.05
40872;BME280;26591;43.264;26.940;2023-11-25T00:47:52;96982.63;;;10.50;79.84
40872;BME280;26591;43.264;26.940;2023-11-25T00:50:18;96985.47;;;10.48;79.26
40872;BME280;26591;43.264;26.940;2023-11-25T00:52:46;96977.41;;;10.62;79.28
40872;BME280;26591;43.264;26.940;2023-11-25T00:55:11;96976.75;;;10.66;79.01
40872;BME280;26591;43.264;26.940;2023-11-25T00:57:37;96975.78;;;10.61;79.13
40872;BME280;26591;43.264;26.940;2023-11-25T01:00:04;96972.88;;;10.69;78.97
40872;BME280;26591;43.264;26.940;2023-11-25T01:02:30;96981.31;;;10.59;79.22
40872;BME280;26591;43.264;26.940;2023-11-25T01:05:04;96976.88;;;10.53;79.29
40872;BME280;26591;43.264;26.940;2023-11-25T01:07:30;96977.09;;;10.51;79.25
40872;BME280;26591;43.264;26.940;2023-11-25T01:09:55;96982.88;;;10.42;79.60
40872;BME280;26591;43.264;26.940;2023-11-25T01:12:21;96967.38;;;10.45;79.54
40872;BME280;26591;43.264;26.940;2023-11-25T01:14:48;96962.84;;;10.52;79.52
40872;BME280;26591;43.264;26.940;2023-11-25T01:17:14;96953.66;;;10.55;79.25
40872;BME280;26591;43.264;26.940;2023-11-25T01:19:39;96942.41;;;10.41;79.63
40872;BME280;26591;43.264;26.940;2023-11-25T01:22:05;96933.38;;;10.49;79.40
40872;BME280;26591;43.264;26.940;2023-11-25T01:24:32;96929.81;;;10.36;79.40
40872;BME280;26591;43.264;26.940;2023-11-25T01:26:58;96927.16;;;10.36;79.67
40872;BME280;26591;43.264;26.940;2023-11-25T01:29:23;96925.31;;;10.37;79.64
40872;BME280;26591;43.264;26.940;2023-11-25T01:31:49;96930.94;;;10.47;79.36
40872;BME280;26591;43.264;26.940;2023-11-25T01:34:14;96922.03;;;10.42;79.08
40872;BME280;26591;43.264;26.940;2023-11-25T01:36:40;96926.44;;;10.22;79.67
40872;BME280;26591;43.264;26.940;2023-11-25T01:39:08;96920.81;;;10.37;79.64
40872;BME280;26591;43.264;26.940;2023-11-25T01:41:34;96910.69;;;10.34;79.24
40872;BME280;26591;43.264;26.940;2023-11-25T01:44:02;96913.13;;;10.36;79.04
40872;BME280;26591;43.264;26.940;2023-11-25T01:46:37;96905.72;;;10.19;79.79
40872;BME280;26591;43.264;26.940;2023-11-25T01:49:05;96903.38;;;10.36;79.67
40872;BME280;26591;43.264;26.940;2023-11-25T01:51:31;96906.34;;;10.47;79.60
40872;BME280;26591;43.264;26.940;2023-11-25T01:53:58;96899.91;;;10.36;79.25
40872;BME280;26591;43.264;26.940;2023-11-25T01:56:26;96896.19;;;10.18;79.49
40872;BME280;26591;43.264;26.940;2023-11-25T01:58:52;96901.94;;;10.34;79.41
40872;BME280;26591;43.264;26.940;2023-11-25T02:01:18;96898.19;;;10.48;79.49
40872;BME280;26591;43.264;26.940;2023-11-25T02:03:45;96883.72;;;10.26;79.36
40872;BME280;26591;43.264;26.940;2023-11-25T02:06:11;96884.44;;;10.14;79.80
40872;BME280;26591;43.264;26.940;2023-11-25T02:08:36;96884.88;;;10.11;79.49
40872;BME280;26591;43.264;26.940;2023-11-25T02:11:02;96875.75;;;10.32;79.11
40872;BME280;26591;43.264;26.940;2023-11-25T02:13:27;96872.88;;;10.34;79.40
40872;BME280;26591;43.264;26.940;2023-11-25T02:15:53;96866.09;;;10.19;79.34
40872;BME280;26591;43.264;26.940;2023-11-25T02:18:19;96871.66;;;10.30;78.71
40872;BME280;26591;43.264;26.940;2023-11-25T02:21:00;96867.38;;;10.35;78.71
40872;BME280;26591;43.264;26.940;2023-11-25T02:23:31;96862.19;;;10.47;78.97
40872;BME280;26591;43.264;26.940;2023-11-25T02:26:02;96877.56;;;10.32;78.71
40872;BME280;26591;43.264;26.940;2023-11-25T02:28:28;96865.72;;;10.41;79.31
40872;BME280;26591;43.264;26.940;2023-11-25T02:30:54;96859.66;;;10.34;79.31
40872;BME280;26591;43.264;26.940;2023-11-25T02:33:19;96854.16;;;10.35;79.15
40872;BME280;26591;43.264;26.940;2023-11-25T02:35:49;96858.44;;;10.30;79.21
40872;BME280;26591;43.264;26.940;2023-11-25T02:38:15;96848.00;;;10.16;79.68
40872;BME280;26591;43.264;26.940;2023-11-25T02:44:02;96846.78;;;9.93;80.60
40872;BME280;26591;43.264;26.940;2023-11-25T02:46:28;96840.34;;;9.57;81.99
40872;BME280;26591;43.264;26.940;2023-11-25T02:48:55;96840.41;;;9.76;81.67
40872;BME280;26591;43.264;26.940;2023-11-25T02:51:22;96843.31;;;9.93;81.80
40872;BME280;26591;43.264;26.940;2023-11-25T02:53:49;96844.88;;;9.50;82.72
40872;BME280;26591;43.264;26.940;2023-11-25T02:56:15;96843.16;;;9.62;82.77
40872;BME280;26591;43.264;26.940;2023-11-25T02:58:40;96835.47;;;9.61;83.59
40872;BME280;26591;43.264;26.940;2023-11-25T03:01:06;96834.22;;;9.64;82.97
40872;BME280;26591;43.264;26.940;2023-11-25T03:03:36;96830.06;;;9.74;83.11
40872;BME280;26591;43.264;26.940;2023-11-25T03:06:03;96823.03;;;9.61;83.39
40872;BME280;26591;43.264;26.940;2023-11-25T03:08:31;96818.00;;;9.60;83.17
40872;BME280;26591;43.264;26.940;2023-11-25T03:10:59;96812.59;;;9.48;83.64
40872;BME280;26591;43.264;26.940;2023-11-25T03:13:25;96807.19;;;9.61;83.61
40872;BME280;26591;43.264;26.940;2023-11-25T03:15:50;96811.09;;;9.59;83.95
40872;BME280;26591;43.264;26.940;2023-11-25T03:18:19;96803.09;;;9.40;83.96
40872;BME280;26591;43.264;26.940;2023-11-25T03:20:45;96806.66;;;9.53;83.74
40872;BME280;26591;43.264;26.940;2023-11-25T03:23:11;96807.81;;;9.64;83.60
40872;BME280;26591;43.264;26.940;2023-11-25T03:25:38;96814.94;;;9.63;84.09
40872;BME280;26591;43.264;26.940;2023-11-25T03:28:10;96816.28;;;9.72;83.49
40872;BME280;26591;43.264;26.940;2023-11-25T03:30:35;96819.56;;;9.68;83.44
40872;BME280;26591;43.264;26.940;2023-11-25T03:33:01;96811.88;;;9.59;84.04
40872;BME280;26591;43.264;26.940;2023-11-25T03:35:26;96802.63;;;9.50;83.77
40872;BME280;26591;43.264;26.940;2023-11-25T03:37:51;96804.25;;;9.51;83.98
40872;BME280;26591;43.264;26.940;2023-11-25T03:40:17;96796.44;;;9.63;83.65
40872;BME280;26591;43.264;26.940;2023-11-25T03:42:43;96797.97;;;9.71;83.66
40872;BME280;26591;43.264;26.940;2023-11-25T03:45:11;96797.50;;;9.55;83.75
40872;BME280;26591;43.264;26.940;2023-11-25T03:47:44;96794.88;;;9.55;83.91
40872;BME280;26591;43.264;26.940;2023-11-25T03:50:10;96781.81;;;9.60;84.00
40872;BME280;26591;43.264;26.940;2023-11-25T03:52:41;96780.63;;;9.56;83.46
40872;BME280;26591;43.264;26.940;2023-11-25T03:55:09;96778.56;;;9.33;84.16
40872;BME280;26591;43.264;26.940;2023-11-25T03:57:39;96769.41;;;9.36;84.21
40872;BME280;26591;43.264;26.940;2023-11-25T04:00:05;96777.34;;;9.61;83.69
40872;BME280;26591;43.264;26.940;2023-11-25T04:02:47;96775.56;;;9.23;84.45
40872;BME280;26591;43.264;26.940;2023-11-25T04:05:13;96766.59;;;9.30;83.77
40872;BME280;26591;43.264;26.940;2023-11-25T04:07:39;96770.31;;;9.23;84.49
40872;BME280;26591;43.264;26.940;2023-11-25T04:10:06;96772.75;;;9.24;84.79
40872;BME280;26591;43.264;26.940;2023-11-25T04:12:52;96759.03;;;9.41;84.22
40872;BME280;26591;43.264;26.940;2023-11-25T04:15:18;96759.50;;;9.56;84.01
40872;BME280;26591;43.264;26.940;2023-11-25T04:17:45;96757.56;;;9.45;84.07
40872;BME280;26591;43.264;26.940;2023-11-25T04:23:33;96747.38;;;9.23;84.83
40872;BME280;26591;43.264;26.940;2023-11-25T04:25:59;96742.94;;;9.17;84.79
40872;BME280;26591;43.264;26.940;2023-11-25T04:28:24;96735.56;;;9.26;84.52
40872;BME280;26591;43.264;26.940;2023-11-25T04:30:50;96734.31;;;9.28;84.63
40872;BME280;26591;43.264;26.940;2023-11-25T04:33:15;96735.19;;;9.22;85.13
40872;BME280;26591;43.264;26.940;2023-11-25T04:35:41;96729.81;;;9.36;84.74
40872;BME280;26591;43.264;26.940;2023-11-25T04:38:08;96723.06;;;8.82;85.53
40872;BME280;26591;43.264;26.940;2023-11-25T04:40:34;96728.44;;;8.62;86.19
40872;BME280;26591;43.264;26.940;2023-11-25T04:42:59;96730.75;;;8.84;86.60
40872;BME280;26591;43.264;26.940;2023-11-25T04:45:25;96724.66;;;8.90;86.83
40872;BME280;26591;43.264;26.940;2023-11-25T04:47:50;96728.47;;;8.94;86.66
40872;BME280;26591;43.264;26.940;2023-11-25T04:50:17;96723.34;;;8.67;87.46
40872;BME280;26591;43.264;26.940;2023-11-25T04:52:43;96715.78;;;8.78;87.64
40872;BME280;26591;43.264;26.940;2023-11-25T04:55:10;96717.69;;;8.64;87.85
40872;BME280;26591;43.264;26.940;2023-11-25T04:57:37;96719.78;;;8.87;87.69
40872;BME280;26591;43.264;26.940;2023-11-25T05:00:04;96706.59;;;8.87;87.23
40872;BME280;26591;43.264;26.940;2023-11-25T05:02:34;96702.66;;;9.03;87.33
40872;BME280;26591;43.264;26.940;2023-11-25T05:05:00;96698.50;;;9.14;86.72
40872;BME280;26591;43.264;26.940;2023-11-25T05:07:26;96703.06;;;9.51;86.90
40872;BME280;26591;43.264;26.940;2023-11-25T05:09:52;96699.53;;;9.64;86.42
40872;BME280;26591;43.264;26.940;2023-11-25T05:12:17;96692.91;;;9.54;85.20
40872;BME280;26591;43.264;26.940;2023-11-25T05:14:45;96694.72;;;9.54;85.44
40872;BME280;26591;43.264;26.940;2023-11-25T05:17:13;96695.22;;;9.44;84.89
40872;BME280;26591;43.264;26.940;2023-11-25T05:19:38;96700.97;;;9.59;84.54
40872;BME280;26591;43.264;26.940;2023-11-25T05:22:04;96696.59;;;9.72;84.38
40872;BME280;26591;43.264;26.940;2023-11-25T05:24:32;96691.75;;;9.69;84.31
40872;BME280;26591;43.264;26.940;2023-11-25T05:26:58;96689.84;;;9.76;84.36
40872;BME280;26591;43.264;26.940;2023-11-25T05:29:24;96677.97;;;9.67;83.80
40872;BME280;26591;43.264;26.940;2023-11-25T05:31:49;96670.50;;;9.82;83.64
40872;BME280;26591;43.264;26.940;2023-11-25T05:34:15;96669.91;;;9.80;84.00
40872;BME280;26591;43.264;26.940;2023-11-25T05:36:40;96670.09;;;9.60;83.93
40872;BME280;26591;43.264;26.940;2023-11-25T05:39:06;96671.56;;;9.56;83.45
40872;BME280;26591;43.264;26.940;2023-11-25T05:41:33;96668.78;;;9.69;84.21
40872;BME280;26591;43.264;26.940;2023-11-25T05:44:02;96666.38;;;9.68;84.55
40872;BME280;26591;43.264;26.940;2023-11-25T05:46:33;96659.91;;;9.64;84.63
40872;BME280;26591;43.264;26.940;2023-11-25T05:48:58;96650.81;;;9.59;84.29
40872;BME280;26591;43.264;26.940;2023-11-25T05:51:32;96653.53;;;9.71;84.23
40872;BME280;26591;43.264;26.940;2023-11-25T05:53:58;96662.25;;;9.72;84.14
40872;BME280;26591;43.264;26.940;2023-11-25T05:56:24;96661.53;;;9.65;83.76
40872;BME280;26591;43.264;26.940;2023-11-25T05:59:02;96652.72;;;9.52;84.16
40872;BME280;26591;43.264;26.940;2023-11-25T06:01:28;96650.50;;;9.49;83.79
40872;BME280;26591;43.264;26.940;2023-11-25T06:03:53;96657.22;;;9.45;84.58
40872;BME280;26591;43.264;26.940;2023-11-25T06:09:28;96662.44;;;9.33;84.52
40872;BME280;26591;43.264;26.940;2023-11-25T06:11:53;96658.53;;;9.36;85.07
40872;BME280;26591;43.264;26.940;2023-11-25T06:14:19;96668.09;;;9.37;84.87
40872;BME280;26591;43.264;26.940;2023-11-25T06:16:47;96662.03;;;9.29;84.40
40872;BME280;26591;43.264;26.940;2023-11-25T06:19:13;96658.97;;;9.32;84.96
40872;BME280;26591;43.264;26.940;2023-11-25T06:21:43;96661.66;;;9.26;84.83
40872;BME280;26591;43.264;26.940;2023-11-25T06:24:08;96642.13;;;9.34;84.77
40872;BME280;26591;43.264;26.940;2023-11-25T06:26:46;96633.13;;;9.16;84.75
40872;BME280;26591;43.264;26.940;2023-11-25T06:29:15;96637.13;;;9.25;84.96
40872;BME280;26591;43.264;26.940;2023-11-25T06:31:41;96632.75;;;9.12;85.57
40872;BME280;26591;43.264;26.940;2023-11-25T06:34:10;96642.06;;;9.40;84.86
40872;BME280;26591;43.264;26.940;2023-11-25T06:36:35;96641.91;;;9.54;84.52
40872;BME280;26591;43.264;26.940;2023-11-25T06:39:00;96635.19;;;9.58;84.33
40872;BME280;26591;43.264;26.940;2023-11-25T06:41:27;96628.84;;;9.40;84.21
40872;BME280;26591;43.264;26.940;2023-11-25T06:43:52;96637.56;;;9.22;84.83
40872;BME280;26591;43.264;26.940;2023-11-25T06:46:18;96634.09;;;9.22;84.79
40872;BME280;26591;43.264;26.940;2023-11-25T06:48:44;96634.97;;;9.15;85.00
40872;BME280;26591;43.264;26.940;2023-11-25T06:51:10;96626.88;;;9.36;84.96
40872;BME280;26591;43.264;26.940;2023-11-25T06:53:37;96620.69;;;9.23;85.20
40872;BME280;26591;43.264;26.940;2023-11-25T06:56:08;96619.81;;;9.29;85.35
40872;BME280;26591;43.264;26.940;2023-11-25T06:58:36;96619.50;;;9.19;85.48
40872;BME280;26591;43.264;26.940;2023-11-25T07:01:01;96614.53;;;9.29;85.27
40872;BME280;26591;43.264;26.940;2023-11-25T07:03:30;96618.06;;;9.42;85.00
40872;BME280;26591;43.264;26.940;2023-11-25T07:05:56;96607.22;;;9.06;86.22
40872;BME280;26591;43.264;26.940;2023-11-25T07:08:23;96615.06;;;8.94;86.12
40872;BME280;26591;43.264;26.940;2023-11-25T07:10:49;96610.38;;;8.96;86.84
40872;BME280;26591;43.264;26.940;2023-11-25T07:13:24;96639.41;;;8.64;88.00
40872;BME280;26591;43.264;26.940;2023-11-25T07:15:55;96631.13;;;8.54;87.81
40872;BME280;26591;43.264;26.940;2023-11-25T07:18:21;96624.28;;;8.39;88.43
40872;BME280;26591;43.264;26.940;2023-11-25T07:20:48;96620.25;;;8.37;87.58
40872;BME280;26591;43.264;26.940;2023-11-25T07:23:14;96625.31;;;8.00;87.72
40872;BME280;26591;43.264;26.940;2023-11-25T07:25:44;96631.56;;;8.05;87.49
40872;BME280;26591;43.264;26.940;2023-11-25T07:28:11;96628.38;;;7.90;87.84
40872;BME280;26591;43.264;26.940;2023-11-25T07:30:37;96617.81;;;7.97;88.02
40872;BME280;26591;43.264;26.940;2023-11-25T07:33:03;96614.97;;;7.98;88.12
40872;BME280;26591;43.264;26.940;2023-11-25T07:35:29;96613.03;;;7.73;87.56
40872;BME280;26591;43.264;26.940;2023-11-25T07:37:55;96598.00;;;7.81;88.28
40872;BME280;26591;43.264;26.940;2023-11-25T07:40:20;96603.94;;;7.69;89.21
40872;BME280;26591;43.264;26.940;2023-11-25T07:42:46;96600.88;;;7.72;88.57
40872;BME280;26591;43.264;26.940;2023-11-25T07:45:14;96593.41;;;7.62;88.73
40872;BME280;26591;43.264;26.940;2023-11-25T07:47:40;96586.91;;;7.65;88.63
40872;BME280;26591;43.264;26.940;2023-11-25T07:50:12;96588.84;;;7.97;88.30
40872;BME280;26591;43.264;26.940;2023-11-25T07:52:38;96594.47;;;8.07;88.33
40872;BME280;26591;43.264;26.940;2023-11-25T07:55:04;96593.25;;;8.03;87.66
40872;BME280;26591;43.264;26.940;2023-11-25T07:57:30;96586.44;;;7.88;87.81
40872;BME280;26591;43.264;26.940;2023-11-25T07:59:56;96589.03;;;7.95;87.88
40872;BME280;26591;43.264;26.940;2023-11-25T08:02:21;96586.41;;;7.95;87.32
40872;BME280;26591;43.264;26.940;2023-11-25T08:05:02;96587.34;;;7.62;88.90
40872;BME280;26591;43.264;26.940;2023-11-25T08:07:28;96580.06;;;7.57;88.81
40872;BME280;26591;43.264;26.940;2023-11-25T08:09:54;96573.75;;;7.72;88.02
40872;BME280;26591;43.264;26.940;2023-11-25T08:12:20;96574.81;;;7.51;88.67
40872;BME280;26591;43.264;26.940;2023-11-25T08:14:45;96582.25;;;7.67;87.94
40872;BME280;26591;43.264;26.940;2023-11-25T08:17:12;96575.16;;;7.74;88.51
40872;BME280;26591;43.264;26.940;2023-11-25T08:19:40;96574.03;;;7.43;89.13
40872;BME280;26591;43.264;26.940;2023-11-25T08:22:06;96577.50;;;7.30;89.21
40872;BME280;26591;43.264;26.940;2023-11-25T08:24:33;96576.03;;;7.55;88.86
40872;BME280;26591;43.264;26.940;2023-11-25T08:26:59;96567.13;;;7.56;89.23
40872;BME280;26591;43.264;26.940;2023-11-25T08:29:24;96565.72;;;7.53;89.43
40872;BME280;26591;43.264;26.940;2023-11-25T08:31:50;96567.63;;;7.85;89.13
40872;BME280;26591;43.264;26.940;2023-11-25T08:34:16;96564.13;;;7.98;88.31
40872;BME280;26591;43.264;26.940;2023-11-25T08:36:41;96554.31;;;8.12;88.11
40872;BME280;26591;43.264;26.940;2023-11-25T08:39:17;96553.13;;;8.07;87.28
40872;BME280;26591;43.264;26.940;2023-11-25T08:41:43;96562.84;;;8.07;86.99
40872;BME280;26591;43.264;26.940;2023-11-25T08:44:17;96563.50;;;8.02;87.04
40872;BME280;26591;43.264;26.940;2023-11-25T08:46:43;96555.94;;;8.13;86.46
40872;BME280;26591;43.264;26.940;2023-11-25T08:49:10;96551.72;;;8.05;86.87
40872;BME280;26591;43.264;26.940;2023-11-25T08:51:36;96556.16;;;8.11;87.05
40872;BME280;26591;43.264;26.940;2023-11-25T08:54:05;96558.03;;;7.97;87.02
40872;BME280;26591;43.264;26.940;2023-11-25T08:56:30;96565.63;;;7.80;86.94
40872;BME280;26591;43.264;26.940;2023-11-25T08:59:00;96563.47;;;7.57;87.26
40872;BME280;26591;43.264;26.940;2023-11-25T09:01:37;96566.66;;;7.72;87.87
40872;BME280;26591;43.264;26.940;2023-11-25T09:04:03;96562.59;;;7.76;88.22
40872;BME280;26591;43.264;26.940;2023-11-25T09:06:32;96568.28;;;7.73;88.18
40872;BME280;26591;43.264;26.940;2023-11-25T09:08:57;96561.81;;;7.69;88.42
40872;BME280;26591;43.264;26.940;2023-11-25T09:11:25;96559.16;;;7.69;88.67
40872;BME280;26591;43.264;26.940;2023-11-25T09:13:53;96558.41;;;7.62;88.38
40872;BME280;26591;43.264;26.940;2023-11-25T09:16:20;96555.91;;;7.74;88.68
40872;BME280;26591;43.264;26.940;2023-11-25T09:18:46;96548.09;;;7.54;88.32
40872;BME280;26591;43.264;26.940;2023-11-25T09:21:12;96552.19;;;7.50;88.45
40872;BME280;26591;43.264;26.940;2023-11-25T09:23:38;96550.75;;;7.47;88.61
40872;BME280;26591;43.264;26.940;2023-11-25T09:26:04;96544.19;;;7.70;88.03
40872;BME280;26591;43.264;26.940;2023-11-25T09:28:30;96542.19;;;7.58;88.19
40872;BME280;26591;43.264;26.940;2023-11-25T09:30:55;96546.31;;;7.41;89.34
40872;BME280;26591;43.264;26.940;2023-11-25T09:33:21;96546.38;;;7.14;89.39
40872;BME280;26591;43.264;26.940;2023-11-25T09:35:47;96527.97;;;7.07;89.63
40872;BME280;26591;43.264;26.940;2023-11-25T09:38:13;96535.06;;;7.07;89.98
40872;BME280;26591;43.264;26.940;2023-11-25T09:40:38;96530.81;;;6.99;90.74
40872;BME280;26591;43.264;26.940;2023-11-25T09:43:04;96521.13;;;6.79;90.58
40872;BME280;26591;43.264;26.940;2023-11-25T09:45:29;96515.47;;;6.89;91.19
40872;BME280;26591;43.264;26.940;2023-11-25T09:47:55;96510.84;;;6.78;91.28
40872;BME280;26591;43.264;26.940;2023-11-25T09:50:23;96514.47;;;6.83;91.93
40872;BME280;26591;43.264;26.940;2023-11-25T09:52:53;96526.78;;;6.96;91.16
40872;BME280;26591;43.264;26.940;2023-11-25T09:55:21;96530.00;;;7.18;91.54
40872;BME280;26591;43.264;26.940;2023-11-25T09:58:02;96514.44;;;7.03;91.10
40872;BME280;26591;43.264;26.940;2023-11-25T10:00:31;96506.56;;;6.97;91.99
40872;BME280;26591;43.264;26.940;2023-11-25T10:02:59;96519.69;;;7.10;91.39
40872;BME280;26591;43.264;26.940;2023-11-25T10:05:26;96531.16;;;7.29;90.91
40872;BME280;26591;43.264;26.940;2023-11-25T10:07:52;96523.94;;;7.05;91.40
40872;BME280;26591;43.264;26.940;2023-11-25T10:10:20;96521.50;;;7.16;90.57
40872;BME280;26591;43.264;26.940;2023-11-25T10:12:52;96493.00;;;7.00;91.21
40872;BME280;26591;43.264;26.940;2023-11-25T10:15:17;96488.78;;;6.85;91.46
40872;BME280;26591;43.264;26.940;2023-11-25T10:17:45;96492.63;;;6.69;91.32
40872;BME280;26591;43.264;26.940;2023-11-25T10:20:13;96504.75;;;6.91;91.34
40872;BME280;26591;43.264;26.940;2023-11-25T10:22:51;96512.06;;;6.82;90.80
40872;BME280;26591;43.264;26.940;2023-11-25T10:25:19;96515.88;;;6.79;91.01
40872;BME280;26591;43.264;26.940;2023-11-25T10:27:46;96513.06;;;6.81;91.28
40872;BME280;26591;43.264;26.940;2023-11-25T10:30:13;96485.97;;;6.67;90.75
40872;BME280;26591;43.264;26.940;2023-11-25T10:32:40;96499.31;;;6.72;90.97
40872;BME280;26591;43.264;26.940;2023-11-25T10:35:06;96508.00;;;6.59;91.57
40872;BME280;26591;43.264;26.940;2023-11-25T10:37:34;96502.97;;;6.44;91.18
40872;BME280;26591;43.264;26.940;2023-11-25T10:39:59;96494.88;;;6.46;90.50
40872;BME280;26591;43.264;26.940;2023-11-25T10:42:25;96505.78;;;6.49;90.84
40872;BME280;26591;43.264;26.940;2023-11-25T10:44:52;96493.47;;;6.36;90.74
40872;BME280;26591;43.264;26.940;2023-11-25T10:47:47;96509.22;;;6.30;89.74
40872;BME280;26591;43.264;26.940;2023-11-25T10:50:12;96501.53;;;6.15;89.04
40872;BME280;26591;43.264;26.940;2023-11-25T10:52:43;96512.63;;;6.03;89.08
40872;BME280;26591;43.264;26.940;2023-11-25T10:55:10;96503.16;;;6.29;89.06
40872;BME280;26591;43.264;26.940;2023-11-25T10:57:36;96510.44;;;6.34;88.26
40872;BME280;26591;43.264;26.940;2023-11-25T11:00:02;96503.38;;;6.41;88.12
40872;BME280;26591;43.264;26.940;2023-11-25T11:02:48;96496.91;;;6.30;87.62
40872;BME280;26591;43.264;26.940;2023-11-25T11:08:00;96511.03;;;6.29;86.74
40872;BME280;26591;43.264;26.940;2023-11-25T11:10:58;96509.41;;;6.28;86.28
40872;BME280;26591;43.264;26.940;2023-11-25T11:13:30;96503.75;;;6.18;87.17
40872;BME280;26591;43.264;26.940;2023-11-25T11:15:57;96500.13;;;6.12;86.97
40872;BME280;26591;43.264;26.940;2023-11-25T11:18:27;96490.22;;;6.21;86.43
40872;BME280;26591;43.264;26.940;2023-11-25T11:20:55;96484.75;;;6.22;86.28
40872;BME280;26591;43.264;26.940;2023-11-25T11:23:22;96483.34;;;6.13;87.13
40872;BME280;26591;43.264;26.940;2023-11-25T11:33:31;96489.59;;;6.05;87.21
40872;BME280;26591;43.264;26.940;2023-11-25T11:35:57;96490.41;;;6.19;86.62
40872;BME280;26591;43.264;26.940;2023-11-25T11:38:26;96502.13;;;6.10;87.00
40872;BME280;26591;43.264;26.940;2023-11-25T11:41:00;96496.09;;;6.09;86.75
40872;BME280;26591;43.264;26.940;2023-11-25T11:43:33;96493.44;;;6.03;86.96
40872;BME280;26591;43.264;26.940;2023-11-25T11:45:58;96499.44;;;5.96;86.58
40872;BME280;26591;43.264;26.940;2023-11-25T11:48:29;96499.72;;;6.02;87.06
40872;BME280;26591;43.264;26.940;2023-11-25T11:50:55;96487.53;;;5.80;87.73
40872;BME280;26591;43.264;26.940;2023-11-25T11:53:20;96484.28;;;5.78;87.57
40872;BME280;26591;43.264;26.940;2023-11-25T11:58:17;96481.41;;;5.60;87.64
40872;BME280;26591;43.264;26.940;2023-11-25T12:03:28;96487.31;;;5.82;86.65
40872;BME280;26591;43.264;26.940;2023-11-25T12:05:55;96478.28;;;6.05;86.31
40872;BME280;26591;43.264;26.940;2023-11-25T12:08:21;96483.44;;;5.78;86.22
40872;BME280;26591;43.264;26.940;2023-11-25T12:10:50;96484.81;;;5.60;87.55
40872;BME280;26591;43.264;26.940;2023-11-25T12:15:54;96487.53;;;5.80;86.98
40872;BME280;26591;43.264;26.940;2023-11-25T12:18:25;96481.84;;;5.77;86.75
40872;BME280;26591;43.264;26.940;2023-11-25T12:20:50;96483.81;;;5.61;86.97
40872;BME280;26591;43.264;26.940;2023-11-25T12:23:16;96476.78;;;5.75;86.62
40872;BME280;26591;43.264;26.940;2023-11-25T12:25:42;96476.16;;;5.67;87.15
40872;BME280;26591;43.264;26.940;2023-11-25T12:28:10;96493.50;;;5.61;87.28
40872;BME280;26591;43.264;26.940;2023-11-25T12:30:37;96483.66;;;5.70;86.05
40872;BME280;26591;43.264;26.940;2023-11-25T12:33:03;96482.94;;;5.41;86.59
40872;BME280;26591;43.264;26.940;2023-11-25T12:35:32;96472.63;;;5.39;86.63
40872;BME280;26591;43.264;26.940;2023-11-25T12:37:58;96481.81;;;5.63;86.26
40872;BME280;26591;43.264;26.940;2023-11-25T12:40:26;96494.28;;;5.55;86.65
40872;BME280;26591;43.264;26.940;2023-11-25T12:42:52;96495.94;;;5.62;86.53
40872;BME280;26591;43.264;26.940;2023-11-25T12:45:33;96500.50;;;5.47;86.42
40872;BME280;26591;43.264;26.940;2023-11-25T12:47:59;96506.00;;;5.52;86.06
40872;BME280;26591;43.264;26.940;2023-11-25T12:50:26;96510.41;;;5.52;85.78
40872;BME280;26591;43.264;26.940;2023-11-25T12:53:12;96529.34;;;5.40;85.88
40872;BME280;26591;43.264;26.940;2023-11-25T12:55:42;96534.19;;;5.43;85.52
40872;BME280;26591;43.264;26.940;2023-11-25T12:58:45;96541.50;;;5.55;85.71
40872;BME280;26591;43.264;26.940;2023-11-25T13:01:11;96527.44;;;5.76;85.42
40872;BME280;26591;43.264;26.940;2023-11-25T13:03:40;96517.75;;;5.70;84.45
40872;BME280;26591;43.264;26.940;2023-11-25T13:06:09;96512.84;;;5.53;84.99
40872;BME280;26591;43.264;26.940;2023-11-25T13:08:38;96521.50;;;5.47;84.24
40872;BME280;26591;43.264;26.940;2023-11-25T13:11:09;96519.13;;;5.59;84.55
40872;BME280;26591;43.264;26.940;2023-11-25T13:13:36;96518.66;;;5.42;84.05
40872;BME280;26591;43.264;26.940;2023-11-25T13:16:03;96519.72;;;5.54;83.59
40872;BME280;26591;43.264;26.940;2023-11-25T13:18:30;96520.53;;;5.61;83.13
40872;BME280;26591;43.264;26.940;2023-11-25T13:20:57;96518.53;;;5.63;83.95
40872;BME280;26591;43.264;26.940;2023-11-25T13:23:22;96512.25;;;5.51;83.74
40872;BME280;26591;43.264;26.940;2023-11-25T13:25:51;96503.41;;;5.17;84.46
40872;BME280;26591;43.264;26.940;2023-11-25T13:28:20;96503.72;;;5.00;84.60